createdAt,value
2022-11-21T00:00:11.043Z,56.62
2022-11-21T00:02:32.444Z,59.60
2022-11-21T00:04:33.882Z,60.52
2022-11-21T00:06:35.294Z,65.67
2022-11-21T00:08:36.907Z,70.75
2022-11-21T00:10:39.357Z,67.40
2022-11-21T00:12:40.786Z,63.92
2022-11-21T00:14:42.202Z,62.70
2022-11-21T00:16:45.121Z,62.24
2022-11-21T00:18:46.557Z,61.23
2022-11-21T00:20:47.929Z,60.13
2022-11-21T00:22:49.755Z,57.19
2022-11-21T00:24:54.162Z,57.60
2022-11-21T00:26:55.866Z,59.39
2022-11-21T00:28:57.369Z,63.36
2022-11-21T00:30:58.916Z,66.84
2022-11-21T00:33:00.505Z,66.55
2022-11-21T00:35:02.167Z,65.46
2022-11-21T00:37:03.539Z,64.46
2022-11-21T00:39:04.982Z,65.22
2022-11-21T00:41:06.460Z,66.37
2022-11-21T00:43:07.914Z,66.44
2022-11-21T00:45:10.196Z,66.65
2022-11-21T00:47:11.658Z,66.64
2022-11-21T00:49:13.071Z,65.60
2022-11-21T00:51:14.551Z,66.52
2022-11-21T01:01:14.334Z,65.00
2022-11-21T01:03:17.713Z,64.91
2022-11-21T01:05:20.616Z,63.05
2022-11-21T01:07:23.442Z,63.04
2022-11-21T01:09:26.522Z,62.14
2022-11-21T01:11:29.762Z,62.88
2022-11-21T01:13:33.875Z,61.27
2022-11-21T01:15:36.697Z,60.09
2022-11-21T01:17:39.438Z,59.81
2022-11-21T01:19:42.318Z,57.22
2022-11-21T01:21:45.079Z,57.29
2022-11-21T01:23:48.315Z,59.87
2022-11-21T01:25:51.571Z,62.05
2022-11-21T01:27:54.311Z,66.90
2022-11-21T01:29:57.117Z,70.39
2022-11-21T01:31:59.967Z,65.94
2022-11-21T01:34:02.984Z,64.43
2022-11-21T01:36:27.739Z,65.23
2022-11-21T01:38:30.518Z,62.36
2022-11-21T01:40:38.805Z,60.96
2022-11-21T01:43:11.501Z,59.77
2022-11-21T01:45:56.496Z,56.68
2022-11-21T01:47:59.554Z,58.84
2022-11-21T01:50:02.552Z,61.45
2022-11-21T01:52:12.283Z,66.58
2022-11-21T01:54:24.013Z,69.32
2022-11-21T01:56:30.674Z,66.10
2022-11-21T01:58:35.673Z,63.61
2022-11-21T02:00:41.034Z,63.16
2022-11-21T02:02:49.631Z,62.36
2022-11-21T02:04:53.613Z,62.14
2022-11-21T02:06:57.019Z,62.38
2022-11-21T02:09:01.449Z,62.01
2022-11-21T02:11:46.689Z,61.28
2022-11-21T02:13:49.445Z,60.90
2022-11-21T02:15:52.304Z,61.49
2022-11-21T02:17:55.612Z,62.56
2022-11-21T02:20:01.980Z,64.39
2022-11-21T02:22:15.891Z,59.82
2022-11-21T02:24:47.053Z,54.16
2022-11-21T02:26:50.292Z,55.07
2022-11-21T02:28:53.065Z,57.85
2022-11-21T02:30:55.832Z,61.50
2022-11-21T02:32:58.908Z,66.29
2022-11-21T02:35:01.864Z,68.08
2022-11-21T02:37:04.654Z,63.22
2022-11-21T02:39:11.638Z,61.96
2022-11-21T02:41:26.903Z,61.71
2022-11-21T02:43:42.785Z,55.90
2022-11-21T02:45:46.776Z,53.89
2022-11-21T02:47:53.723Z,56.49
2022-11-21T02:50:27.029Z,59.01
2022-11-21T02:52:29.743Z,60.81
2022-11-21T02:54:32.679Z,68.26
2022-11-21T02:56:35.442Z,69.37
2022-11-21T02:58:38.617Z,66.47
2022-11-21T03:00:42.741Z,63.74
2022-11-21T03:02:45.951Z,60.33
2022-11-21T03:04:48.801Z,55.68
2022-11-21T03:06:51.566Z,55.28
2022-11-21T03:08:54.295Z,56.37
2022-11-21T03:10:57.084Z,60.76
2022-11-21T03:13:03.035Z,66.47
2022-11-21T03:15:07.448Z,69.47
2022-11-21T03:17:10.363Z,64.00
2022-11-21T03:19:13.111Z,61.15
2022-11-21T03:21:15.921Z,56.12
2022-11-21T03:23:18.715Z,54.53
2022-11-21T03:25:21.679Z,56.63
2022-11-21T03:27:24.661Z,59.34
2022-11-21T03:29:27.409Z,61.95
2022-11-21T03:31:30.200Z,69.26
2022-11-21T03:33:33.026Z,69.29
2022-11-21T03:35:35.880Z,64.14
2022-11-21T03:37:38.581Z,61.41
2022-11-21T03:39:41.365Z,56.24
2022-11-21T03:41:44.137Z,53.86
2022-11-21T03:43:46.912Z,55.01
2022-11-21T03:45:49.717Z,56.99
2022-11-21T03:47:52.519Z,56.78
2022-11-21T03:49:55.317Z,58.47
2022-11-21T03:51:58.107Z,61.18
2022-11-21T03:54:00.964Z,66.11
2022-11-21T03:56:03.798Z,69.68
2022-11-21T03:58:06.585Z,65.98
2022-11-21T04:00:10.090Z,62.23
2022-11-21T04:02:12.892Z,58.95
2022-11-21T04:04:15.752Z,54.71
2022-11-21T04:06:20.313Z,55.25
2022-11-21T04:08:23.145Z,57.35
2022-11-21T04:10:25.879Z,59.28
2022-11-21T04:12:28.604Z,60.47
2022-11-21T04:14:31.377Z,65.05
2022-11-21T04:16:34.190Z,68.30
2022-11-21T04:18:37.172Z,65.66
2022-11-21T04:20:40.687Z,61.75
2022-11-21T04:22:43.784Z,57.11
2022-11-21T04:24:46.606Z,55.51
2022-11-21T04:26:49.536Z,57.34
2022-11-21T04:28:52.348Z,58.42
2022-11-21T04:30:55.699Z,60.21
2022-11-21T04:32:58.994Z,61.19
2022-11-21T04:35:01.869Z,67.46
2022-11-21T04:37:10.163Z,71.44
2022-11-21T04:39:14.207Z,67.55
2022-11-21T04:41:16.953Z,64.67
2022-11-21T04:43:19.724Z,61.65
2022-11-21T04:45:22.669Z,60.05
2022-11-21T04:47:25.655Z,59.78
2022-11-21T04:49:28.459Z,56.88
2022-11-21T04:51:31.212Z,56.48
2022-11-21T04:53:36.353Z,57.20
2022-11-21T04:55:42.817Z,59.87
2022-11-21T04:57:46.001Z,60.85
2022-11-21T04:59:48.764Z,66.84
2022-11-21T05:01:51.504Z,71.49
2022-11-21T05:03:54.323Z,68.81
2022-11-21T05:05:57.228Z,64.98
2022-11-21T05:08:00.128Z,63.35
2022-11-21T05:10:03.208Z,63.26
2022-11-21T05:12:25.217Z,62.07
2022-11-21T05:14:28.317Z,60.55
2022-11-21T05:16:33.523Z,55.14
2022-11-21T05:18:36.418Z,52.37
2022-11-21T05:20:39.180Z,54.05
2022-11-21T05:22:42.006Z,56.84
2022-11-21T05:24:44.805Z,60.52
2022-11-21T05:26:47.771Z,64.35
2022-11-21T05:28:50.581Z,68.33
2022-11-21T05:30:53.400Z,68.03
2022-11-21T05:32:56.180Z,65.39
2022-11-21T05:34:58.963Z,62.67
2022-11-21T05:37:01.714Z,61.49
2022-11-21T05:39:04.878Z,60.18
2022-11-21T05:41:07.670Z,57.11
2022-11-21T05:43:31.087Z,56.18
2022-11-21T05:45:33.922Z,59.42
2022-11-21T05:47:36.758Z,60.20
2022-11-21T05:49:39.527Z,64.40
2022-11-21T05:51:42.397Z,68.00
2022-11-21T05:53:46.570Z,67.12
2022-11-21T05:55:49.403Z,65.09
2022-11-21T05:57:52.180Z,63.25
2022-11-21T05:59:55.128Z,62.50
2022-11-21T06:02:16.695Z,61.98
2022-11-21T06:04:19.543Z,61.12
2022-11-21T06:06:24.972Z,61.08
2022-11-21T06:08:29.110Z,58.82
2022-11-21T06:10:31.955Z,55.80
2022-11-21T06:12:34.761Z,56.97
2022-11-21T06:14:37.571Z,59.44
2022-11-21T06:16:40.369Z,63.57
2022-11-21T06:18:45.621Z,66.65
2022-11-21T06:20:48.537Z,65.51
2022-11-21T06:22:51.380Z,65.41
2022-11-21T06:24:54.156Z,63.59
2022-11-21T06:26:57.719Z,60.78
2022-11-21T06:29:00.582Z,58.10
2022-11-21T06:31:04.645Z,57.36
2022-11-21T06:33:07.673Z,59.71
2022-11-21T06:35:10.498Z,60.24
2022-11-21T06:37:13.376Z,65.24
2022-11-21T06:39:16.326Z,68.97
2022-11-21T06:41:21.136Z,66.28
2022-11-21T06:43:24.033Z,61.74
2022-11-21T06:45:27.138Z,60.10
2022-11-21T06:47:34.494Z,56.57
2022-11-21T06:49:37.491Z,55.47
2022-11-21T06:51:40.270Z,58.30
2022-11-21T06:53:43.210Z,60.95
2022-11-21T06:55:46.022Z,65.89
2022-11-21T06:57:48.923Z,66.76
2022-11-21T06:59:51.748Z,63.32
2022-11-21T07:01:54.718Z,60.75
2022-11-21T07:03:57.651Z,57.05
2022-11-21T07:06:01.898Z,56.16
2022-11-21T07:08:09.120Z,60.43
2022-11-21T07:10:15.838Z,63.89
2022-11-21T07:12:37.434Z,66.67
2022-11-21T07:14:40.248Z,61.91
2022-11-21T07:16:43.099Z,60.58
2022-11-21T07:18:45.902Z,59.70
2022-11-21T07:20:49.227Z,60.42
2022-11-21T07:22:55.861Z,60.36
2022-11-21T07:24:58.684Z,58.60
2022-11-21T07:27:02.346Z,57.78
2022-11-21T07:29:05.144Z,58.66
2022-11-21T07:31:13.971Z,63.37
2022-11-21T07:33:17.165Z,66.99
2022-11-21T07:35:19.988Z,63.57
2022-11-21T07:37:22.887Z,59.70
2022-11-21T07:39:25.914Z,54.85
2022-11-21T07:41:29.114Z,55.27
2022-11-21T07:43:31.934Z,58.84
2022-11-21T07:45:34.800Z,60.11
2022-11-21T07:47:38.014Z,64.33
2022-11-21T07:49:40.811Z,66.31
2022-11-21T07:51:43.600Z,63.77
2022-11-21T07:53:46.373Z,58.62
2022-11-21T07:55:49.208Z,55.12
2022-11-21T07:57:59.409Z,56.28
2022-11-21T08:00:02.445Z,59.79
2022-11-21T08:02:05.390Z,63.82
2022-11-21T08:04:08.218Z,66.52
2022-11-21T08:06:13.031Z,62.89
2022-11-21T08:08:16.022Z,58.24
2022-11-21T08:10:19.351Z,57.71
2022-11-21T08:12:22.923Z,60.12
2022-11-21T08:14:25.696Z,62.80
2022-11-21T08:16:30.687Z,64.36
2022-11-21T08:18:33.532Z,62.99
2022-11-21T08:20:36.803Z,59.08
2022-11-21T08:22:42.530Z,57.48
2022-11-21T08:24:45.314Z,58.23
2022-11-21T08:26:48.291Z,59.92
2022-11-21T08:28:54.325Z,63.65
2022-11-21T08:31:03.948Z,62.82
2022-11-21T08:33:07.035Z,61.37
2022-11-21T08:35:09.796Z,61.24
2022-11-21T08:37:12.599Z,61.07
2022-11-21T08:39:15.373Z,58.15
2022-11-21T08:41:37.170Z,55.91
2022-11-21T08:43:40.035Z,59.99
2022-11-21T08:45:42.856Z,61.28
2022-11-21T08:47:45.777Z,64.81
2022-11-21T08:49:48.770Z,64.95
2022-11-21T08:51:52.056Z,60.63
2022-11-21T08:53:54.974Z,57.61
2022-11-21T08:56:02.770Z,59.05
2022-11-21T08:58:06.872Z,59.71
2022-11-21T09:00:14.227Z,63.82
2022-11-21T09:02:17.003Z,66.03
2022-11-21T09:04:19.840Z,62.04
2022-11-21T09:06:22.744Z,60.20
2022-11-21T09:08:25.960Z,56.71
2022-11-21T09:10:31.740Z,57.11
2022-11-21T09:12:34.598Z,57.68
2022-11-21T09:15:06.894Z,59.92
2022-11-21T09:17:32.548Z,62.83
2022-11-21T09:19:35.407Z,64.85
2022-11-21T09:21:38.214Z,61.56
2022-11-21T09:23:40.957Z,61.35
2022-11-21T09:25:44.788Z,61.42
2022-11-21T09:27:47.671Z,59.98
2022-11-21T09:29:54.023Z,59.08
2022-11-21T09:31:57.147Z,59.32
2022-11-21T09:34:00.110Z,60.93
2022-11-21T09:36:03.013Z,63.65
2022-11-21T09:38:05.894Z,64.63
2022-11-21T09:40:15.225Z,61.16
2022-11-21T09:42:29.326Z,58.10
2022-11-21T09:44:59.576Z,58.29
2022-11-21T09:47:22.220Z,60.29
2022-11-21T09:49:25.784Z,60.69
2022-11-21T09:51:31.196Z,64.99
2022-11-21T09:53:39.874Z,64.26
2022-11-21T09:55:57.985Z,61.34
2022-11-21T09:58:19.433Z,59.53
2022-11-21T10:00:24.273Z,58.24
2022-11-21T10:02:27.123Z,57.62
2022-11-21T10:04:31.791Z,60.42
2022-11-21T10:06:53.570Z,63.19
2022-11-21T10:09:04.966Z,62.79
2022-11-21T10:11:19.677Z,59.11
2022-11-21T10:13:28.951Z,55.50
2022-11-21T10:15:56.514Z,57.33
2022-11-21T10:18:37.202Z,60.04
2022-11-21T10:20:52.115Z,61.90
2022-11-21T10:23:14.790Z,64.06
2022-11-21T10:25:27.509Z,60.41
2022-11-21T10:27:37.691Z,55.60
2022-11-21T10:30:04.865Z,55.61
2022-11-21T10:32:25.116Z,57.92
2022-11-21T10:34:35.183Z,60.46
2022-11-21T10:36:41.747Z,62.16
2022-11-21T10:38:45.511Z,63.34
2022-11-21T10:41:09.855Z,60.46
2022-11-21T10:43:58.605Z,54.88
2022-11-21T10:46:01.388Z,54.89
2022-11-21T10:48:08.142Z,56.61
2022-11-21T10:50:33.140Z,59.63
2022-11-21T10:52:43.022Z,60.99
2022-11-21T10:55:04.094Z,62.18
2022-11-21T10:57:20.234Z,65.25
2022-11-21T10:59:31.147Z,60.46
2022-11-21T11:01:35.842Z,57.87
2022-11-21T11:03:38.641Z,57.49
2022-11-21T11:05:43.838Z,59.38
2022-11-21T11:08:12.445Z,60.68
2022-11-21T11:10:27.787Z,61.48
2022-11-21T11:12:51.358Z,62.20
2022-11-21T11:14:56.624Z,63.27
2022-11-21T11:16:59.696Z,63.77
2022-11-21T11:19:10.041Z,58.54
2022-11-21T11:21:24.910Z,55.20
2022-11-21T11:23:28.238Z,56.99
2022-11-21T11:25:34.995Z,58.22
2022-11-21T11:27:37.718Z,59.17
2022-11-21T11:29:52.972Z,60.55
2022-11-21T11:31:59.080Z,62.67
2022-11-21T11:34:01.856Z,62.90
2022-11-21T11:36:15.392Z,60.56
2022-11-21T11:38:22.690Z,57.51
2022-11-21T11:40:40.222Z,57.52
2022-11-21T11:43:07.651Z,59.11
2022-11-21T11:45:32.285Z,60.30
2022-11-21T11:47:43.230Z,62.24
2022-11-21T11:50:11.558Z,63.04
2022-11-21T11:52:15.466Z,60.74
2022-11-21T11:54:26.779Z,58.39
2022-11-21T11:56:38.035Z,58.39
2022-11-21T11:58:49.573Z,59.57
2022-11-21T12:01:10.691Z,60.34
2022-11-21T12:03:31.971Z,61.83
2022-11-21T12:05:37.777Z,63.42
2022-11-21T12:10:11.397Z,61.84
2022-11-21T12:12:28.485Z,56.31
2022-11-21T12:15:05.941Z,52.48
2022-11-21T12:17:10.347Z,55.09
2022-11-21T12:19:16.007Z,57.78
2022-11-21T12:21:19.881Z,58.57
2022-11-21T12:23:32.219Z,60.37
2022-11-21T12:25:41.760Z,62.46
2022-11-21T12:27:48.981Z,63.39
2022-11-21T12:30:46.028Z,60.94
2022-11-21T12:33:08.209Z,54.97
2022-11-21T12:35:20.579Z,56.51
2022-11-21T12:37:59.222Z,58.18
2022-11-21T12:40:23.033Z,59.70
2022-11-21T12:42:50.597Z,61.73
2022-11-21T12:44:59.320Z,64.01
2022-11-21T12:47:23.036Z,61.90
2022-11-21T12:50:05.878Z,58.75
2022-11-21T12:52:53.156Z,55.88
2022-11-21T12:55:19.738Z,58.65
2022-11-21T12:57:34.706Z,60.41
2022-11-21T12:59:59.247Z,61.88
2022-11-21T13:02:47.249Z,63.81
2022-11-21T13:04:51.334Z,62.78
2022-11-21T13:06:57.194Z,61.97
2022-11-21T13:09:03.187Z,61.33
2022-11-21T13:11:55.589Z,62.24
2022-11-21T13:14:37.359Z,60.26
2022-11-21T13:16:48.266Z,59.03
2022-11-21T13:18:52.051Z,59.60
2022-11-21T13:20:54.899Z,61.47
2022-11-21T13:23:03.627Z,63.34
2022-11-21T13:25:10.888Z,64.21
2022-11-21T13:27:36.506Z,62.71
2022-11-21T13:30:07.105Z,60.61
2022-11-21T13:32:49.751Z,58.24
2022-11-21T13:34:52.699Z,59.10
2022-11-21T13:36:55.527Z,60.91
2022-11-21T13:38:58.447Z,63.48
2022-11-21T13:41:19.902Z,64.25
2022-11-21T13:43:35.066Z,62.37
2022-11-21T13:45:53.691Z,60.01
2022-11-21T13:48:16.110Z,58.64
2022-11-21T13:50:46.664Z,59.40
2022-11-21T13:52:58.509Z,60.29
2022-11-21T13:55:19.332Z,63.73
2022-11-21T13:57:44.706Z,64.28
2022-11-21T14:00:22.945Z,64.41
2022-11-21T14:02:45.288Z,62.29
2022-11-21T14:05:20.788Z,56.25
2022-11-21T14:07:33.086Z,55.48
2022-11-21T14:09:37.221Z,57.94
2022-11-21T14:11:49.559Z,59.47
2022-11-21T14:13:52.792Z,59.93
2022-11-21T14:16:25.065Z,63.44
2022-11-21T14:18:28.178Z,67.22
2022-11-21T14:21:01.248Z,61.23
2022-11-21T14:23:06.633Z,55.64
2022-11-21T14:25:16.847Z,54.74
2022-11-21T14:27:40.889Z,56.96
2022-11-21T14:29:47.911Z,59.61
2022-11-21T14:31:50.820Z,60.93
2022-11-21T14:33:58.448Z,64.03
2022-11-21T14:36:10.012Z,66.13
2022-11-21T14:38:14.777Z,63.76
2022-11-21T14:40:23.927Z,56.74
2022-11-21T14:42:36.470Z,54.99
2022-11-21T14:44:39.705Z,56.15
2022-11-21T14:46:43.824Z,57.05
2022-11-21T14:48:47.137Z,60.22
2022-11-21T14:50:50.188Z,62.04
2022-11-21T14:52:57.516Z,65.10
2022-11-21T14:57:37.082Z,64.54
2022-11-21T14:59:41.956Z,60.61
2022-11-21T15:01:56.102Z,55.19
2022-11-21T15:04:07.224Z,52.84
2022-11-21T15:06:10.981Z,54.28
2022-11-21T15:08:46.746Z,55.73
2022-11-21T15:10:46.034Z,56.93
2022-11-21T15:12:48.808Z,58.74
2022-11-21T15:15:01.552Z,60.44
2022-11-21T15:17:10.864Z,64.76
2022-11-21T15:19:20.436Z,69.75
2022-11-21T15:21:23.488Z,64.22
2022-11-21T15:23:29.061Z,61.86
2022-11-21T15:25:47.315Z,55.43
2022-11-21T15:28:06.273Z,52.81
2022-11-21T15:30:15.100Z,53.68
2022-11-21T15:32:18.467Z,54.99
2022-11-21T15:34:35.231Z,57.09
2022-11-21T15:36:39.877Z,58.79
2022-11-21T15:39:01.199Z,60.91
2022-11-21T15:41:10.376Z,66.22
2022-11-21T15:43:37.398Z,67.40
2022-11-21T15:45:41.825Z,69.23
2022-11-21T15:47:44.945Z,63.92
2022-11-21T15:49:48.218Z,56.54
2022-11-21T15:52:08.986Z,53.93
2022-11-21T15:54:19.090Z,54.87
2022-11-21T15:56:25.862Z,57.87
2022-11-21T15:58:29.187Z,59.67
2022-11-21T16:00:32.762Z,61.35
2022-11-21T16:02:35.923Z,63.97
2022-11-21T16:04:39.212Z,66.03
2022-11-21T16:06:42.430Z,63.39
2022-11-21T16:08:47.122Z,62.02
2022-11-21T16:10:50.301Z,60.99
2022-11-21T16:12:53.323Z,61.02
2022-11-21T16:14:56.069Z,60.74
2022-11-21T16:23:59.439Z,59.67
2022-11-21T16:26:01.302Z,60.62
2022-11-21T16:28:06.975Z,62.33
2022-11-21T16:30:09.135Z,65.54
2022-11-21T16:32:10.570Z,64.27
2022-11-21T16:34:11.978Z,63.13
2022-11-21T16:36:18.315Z,60.71
2022-11-21T16:38:27.610Z,59.97
2022-11-21T16:40:29.058Z,57.40
2022-11-21T16:42:30.607Z,55.31
2022-11-21T16:44:32.115Z,56.49
2022-11-21T16:46:33.643Z,57.10
2022-11-21T16:48:35.368Z,58.45
2022-11-21T16:50:40.383Z,60.33
2022-11-21T16:52:41.859Z,63.10
2022-11-21T16:54:43.358Z,66.75
2022-11-21T16:56:44.822Z,64.25
2022-11-21T16:58:47.245Z,62.36
2022-11-21T17:00:48.844Z,62.29
2022-11-21T17:02:51.712Z,61.15
2022-11-21T17:04:53.273Z,61.59
2022-11-21T17:06:54.785Z,61.03
2022-11-21T17:08:59.404Z,61.26
2022-11-21T17:11:21.382Z,60.31
2022-11-21T17:13:22.951Z,61.06
2022-11-21T17:15:24.427Z,56.68
2022-11-21T17:17:26.022Z,53.45
2022-11-21T17:19:27.579Z,55.05
2022-11-21T17:21:29.824Z,57.21
2022-11-21T17:23:32.270Z,59.53
2022-11-21T17:25:33.751Z,62.05
2022-11-21T17:27:35.184Z,65.56
2022-11-21T17:29:36.693Z,64.30
2022-11-21T17:31:38.517Z,62.44
2022-11-21T17:33:40.912Z,60.13
2022-11-21T17:35:43.551Z,59.41
2022-11-21T17:37:45.045Z,58.31
2022-11-21T17:39:46.538Z,58.35
2022-11-21T17:41:47.975Z,59.57
2022-11-21T17:43:54.254Z,60.93
2022-11-21T17:46:09.105Z,63.61
2022-11-21T17:48:11.153Z,67.11
2022-11-21T17:50:12.805Z,68.24
2022-11-21T17:52:14.277Z,65.97
2022-11-21T17:54:15.954Z,62.06
2022-11-21T17:56:20.141Z,55.61
2022-11-21T18:09:43.214Z,63.35
2022-11-21T18:11:46.329Z,60.46
2022-11-21T18:13:50.326Z,55.73
2022-11-21T18:15:53.172Z,55.84
2022-11-21T18:17:55.975Z,56.87
2022-11-21T18:19:58.714Z,59.50
2022-11-21T18:22:01.478Z,61.76
2022-11-21T18:24:04.547Z,64.34
2022-11-21T18:26:08.673Z,63.93
2022-11-21T18:28:11.991Z,64.93
2022-11-21T18:30:14.821Z,64.98
2022-11-21T18:32:17.634Z,63.73
2022-11-21T18:34:20.502Z,58.70
2022-11-21T18:36:26.376Z,57.39
2022-11-21T18:38:56.601Z,59.42
2022-11-21T18:41:06.071Z,60.69
2022-11-21T18:43:09.622Z,63.55
2022-11-21T18:45:12.618Z,66.38
2022-11-21T18:47:20.444Z,65.25
2022-11-21T18:49:28.211Z,62.48
2022-11-21T18:51:32.377Z,62.82
2022-11-21T18:53:35.709Z,60.49
2022-11-21T18:55:39.967Z,60.81
2022-11-21T18:57:43.240Z,58.52
2022-11-21T18:59:47.126Z,55.41
2022-11-21T19:01:50.798Z,56.02
2022-11-21T19:03:56.298Z,58.35
2022-11-21T19:05:59.476Z,60.48
2022-11-21T19:08:02.250Z,63.39
2022-11-21T19:10:40.907Z,67.17
2022-11-21T19:12:28.524Z,64.85
2022-11-21T19:14:31.569Z,60.44
2022-11-21T19:16:34.782Z,57.88
2022-11-21T19:18:41.197Z,57.67
2022-11-21T19:20:45.272Z,59.53
2022-11-21T19:22:48.035Z,61.11
2022-11-21T19:24:51.137Z,64.40
2022-11-21T19:26:53.919Z,70.03
2022-11-21T19:28:58.310Z,67.51
2022-11-21T19:31:03.266Z,61.15
2022-11-21T19:33:05.998Z,55.88
2022-11-21T19:35:09.819Z,52.33
2022-11-21T19:37:12.704Z,53.74
2022-11-21T19:39:17.577Z,57.15
2022-11-21T19:41:27.581Z,59.20
2022-11-21T19:43:31.371Z,62.85
2022-11-21T19:45:34.176Z,66.52
2022-11-21T19:47:36.949Z,62.69
2022-11-21T19:49:39.728Z,61.32
2022-11-21T19:51:42.571Z,60.27
2022-11-21T19:53:46.511Z,60.11
2022-11-21T19:55:49.342Z,60.81
2022-11-21T19:57:52.160Z,61.31
2022-11-21T19:59:54.915Z,61.09
2022-11-21T20:01:57.994Z,61.36
2022-11-21T20:04:03.218Z,62.23
2022-11-21T20:06:08.699Z,61.25
2022-11-21T20:08:17.426Z,61.01
2022-11-21T20:10:22.073Z,60.78
2022-11-21T20:12:27.041Z,60.85
2022-11-21T20:14:30.384Z,60.75
2022-11-21T20:16:35.857Z,60.39
2022-11-21T20:18:38.664Z,60.55
2022-11-21T20:20:41.506Z,60.92
2022-11-21T20:22:45.435Z,60.60
2022-11-21T20:24:51.696Z,60.02
2022-11-21T20:26:54.860Z,59.71
2022-11-21T20:28:57.952Z,57.85
2022-11-21T20:31:14.328Z,57.46
2022-11-21T20:33:17.123Z,58.12
2022-11-21T20:35:19.893Z,60.74
2022-11-21T20:37:22.679Z,60.42
2022-11-21T20:39:31.695Z,64.52
2022-11-21T20:41:36.751Z,67.95
2022-11-21T20:44:24.509Z,65.42
2022-11-21T20:46:10.814Z,63.39
2022-11-21T20:48:20.077Z,60.97
2022-11-21T20:51:03.505Z,59.41
2022-11-21T20:55:10.036Z,56.57
2022-11-21T20:57:15.246Z,58.43
2022-11-21T20:59:18.620Z,60.22
2022-11-21T21:01:21.986Z,61.13
2022-11-21T21:03:25.647Z,66.56
2022-11-21T21:05:29.763Z,69.67
2022-11-21T21:07:32.660Z,63.52
2022-11-21T21:09:35.426Z,56.76
2022-11-21T21:11:52.057Z,54.87
2022-11-21T21:13:55.873Z,56.32
2022-11-21T21:16:14.318Z,58.65
2022-11-21T21:18:17.118Z,60.38
2022-11-21T21:20:20.075Z,64.91
2022-11-21T21:22:23.060Z,67.62
2022-11-21T21:24:25.885Z,66.69
2022-11-21T21:26:32.158Z,65.63
2022-11-21T21:28:37.902Z,63.53
2022-11-21T21:30:41.067Z,61.40
2022-11-21T21:32:44.115Z,60.04
2022-11-21T21:34:46.846Z,56.48
2022-11-21T21:36:51.039Z,55.81
2022-11-21T21:38:56.224Z,57.76
2022-11-21T21:40:59.059Z,59.50
2022-11-21T21:43:01.879Z,61.03
2022-11-21T21:45:04.946Z,65.70
2022-11-21T21:47:11.247Z,67.96
2022-11-21T21:49:14.295Z,64.69
2022-11-21T21:51:22.277Z,62.20
2022-11-21T21:53:25.079Z,59.70
2022-11-21T21:55:28.107Z,57.53
2022-11-21T21:57:30.917Z,57.09
2022-11-21T21:59:33.665Z,58.47
2022-11-21T22:01:36.536Z,60.39
2022-11-21T22:03:40.915Z,64.00
2022-11-21T22:05:43.789Z,69.12
2022-11-21T22:07:46.601Z,67.94
2022-11-21T22:09:49.395Z,61.34
2022-11-21T22:11:54.153Z,56.26
2022-11-21T22:13:59.605Z,54.44
2022-11-21T22:16:04.261Z,56.89
2022-11-21T22:18:07.067Z,59.49
2022-11-21T22:20:10.169Z,61.96
2022-11-21T22:22:12.906Z,68.25
2022-11-21T22:24:25.889Z,69.04
2022-11-21T22:26:29.757Z,65.35
2022-11-21T22:28:32.527Z,60.16
2022-11-21T22:30:35.513Z,56.03
2022-11-21T22:32:38.294Z,55.20
2022-11-21T22:34:41.093Z,58.16
2022-11-21T22:36:44.838Z,60.50
2022-11-21T22:38:48.120Z,59.91
2022-11-21T22:40:50.818Z,66.64
2022-11-21T22:42:53.645Z,70.75
2022-11-21T22:44:56.407Z,67.89
2022-11-21T22:46:59.805Z,64.44
2022-11-21T22:49:03.767Z,62.98
2022-11-21T22:51:07.570Z,62.21
2022-11-21T22:53:10.489Z,61.52
2022-11-21T22:55:13.369Z,61.77
2022-11-21T22:57:16.141Z,61.06
2022-11-21T22:59:18.940Z,60.75
2022-11-21T23:01:24.320Z,59.91
2022-11-21T23:03:27.891Z,60.40
2022-11-21T23:05:30.743Z,58.95
2022-11-21T23:07:33.646Z,57.11
2022-11-21T23:09:36.572Z,58.15
2022-11-21T23:11:41.022Z,59.04
2022-11-21T23:13:45.872Z,63.30
2022-11-21T23:15:48.702Z,68.21
2022-11-21T23:17:52.760Z,68.67
2022-11-21T23:19:55.679Z,63.74
2022-11-21T23:21:58.453Z,61.27
2022-11-21T23:24:01.279Z,58.03
2022-11-21T23:26:05.556Z,55.94
2022-11-21T23:28:08.372Z,57.81
2022-11-21T23:30:11.428Z,59.64
2022-11-21T23:32:15.673Z,61.27
2022-11-21T23:34:18.464Z,65.00
2022-11-21T23:36:21.395Z,69.51
2022-11-21T23:38:24.184Z,68.50
2022-11-21T23:40:27.057Z,68.06
2022-11-21T23:42:30.205Z,65.16
2022-11-21T23:44:33.030Z,61.78
2022-11-21T23:46:35.838Z,60.74
2022-11-21T23:48:38.726Z,60.46
2022-11-21T23:50:41.630Z,59.90
2022-11-21T23:52:44.381Z,58.54
2022-11-21T23:54:47.139Z,59.31
2022-11-21T23:56:50.411Z,59.95
2022-11-21T23:58:53.231Z,63.28
